Time;durP1;ratioP1;P1;durP2;ratioP2;P2;SDS_P1;SDS_P2;PMS_P1;PMS_P2;Temp;Humidity;BMP_temperature;BMP_pressure;BME280_temperature;BME280_humidity;BME280_pressure;Samples;Min_cycle;Max_cycle;Signal;HPM_P1;HPM_P2
2022/09/18 00:01:18;;;;;;;4.88;3.42;;;21.40;62.60;;;;;;5022720;28;20980;-50
2022/09/18 00:03:45;;;;;;;3.63;3.33;;;21.40;62.50;;;;;;5017620;28;20036;-51
2022/09/18 00:06:15;;;;;;;;;;;21.40;62.40;;;;;;5049540;27;20609;-50
2022/09/18 00:08:44;;;;;;;3.83;3.53;;;21.40;63.60;;;;;;5121417;27;19908;-51
2022/09/18 00:11:12;;;;;;;3.80;3.50;;;21.30;62.30;;;;;;5119858;27;20027;-51
2022/09/18 00:13:38;;;;;;;3.30;3.00;;;21.30;62.20;;;;;;5119032;27;20041;-50
2022/09/18 00:16:05;;;;;;;3.90;3.60;;;21.30;62.10;;;;;;5120608;27;20020;-53
2022/09/18 00:18:32;;;;;;;3.85;3.55;;;21.30;62.00;;;;;;5119841;27;20043;-49
2022/09/18 00:21:17;;;;;;;4.13;3.83;;;21.30;61.90;;;;;;5120390;27;20064;-50
2022/09/18 00:23:44;;;;;;;3.60;3.30;;;21.30;61.50;;;;;;5120416;27;20487;-48
2022/09/18 00:26:10;;;;;;;4.03;3.72;;;21.20;61.50;;;;;;5122633;27;20057;-49
2022/09/18 00:28:36;;;;;;;3.78;3.47;;;21.20;61.50;;;;;;5118930;27;20023;-49
2022/09/18 00:31:14;;;;;;;4.05;3.75;;;21.20;61.50;;;;;;5118907;27;20048;-51
2022/09/18 00:33:40;;;;;;;4.30;4.00;;;21.20;61.50;;;;;;5124384;27;20031;-52
2022/09/18 00:36:11;;;;;;;4.30;4.00;;;21.20;61.90;;;;;;5122614;28;20688;-53
2022/09/18 00:38:37;;;;;;;4.57;4.18;;;21.20;61.50;;;;;;5125400;27;20054;-50
2022/09/18 00:41:05;;;;;;;4.60;4.20;;;21.10;61.50;;;;;;5103767;27;20024;-49
2022/09/18 00:43:33;;;;;;;4.60;4.30;;;21.10;61.50;;;;;;5123175;27;20122;-51
2022/09/18 00:46:04;;;;;;;;;;;21.10;61.40;;;;;;5125255;27;20054;-48
2022/09/18 00:48:58;;;;;;;5.60;5.10;;;21.10;61.80;;;;;;5122705;27;19962;-48
2022/09/18 00:51:24;;;;;;;5.07;4.57;;;21.10;60.80;;;;;;5110258;27;20031;-48
2022/09/18 00:54:00;;;;;;;3.72;3.42;;;21.00;59.70;;;;;;5102161;28;20027;-48
2022/09/18 00:56:26;;;;;;;4.65;4.25;;;21.00;59.50;;;;;;5108445;27;20024;-48
2022/09/18 00:58:52;;;;;;;4.90;4.40;;;20.90;59.50;;;;;;5126233;27;20035;-49
2022/09/18 01:01:18;;;;;;;5.03;4.60;;;20.90;59.50;;;;;;5104461;28;20028;-50
2022/09/18 01:03:45;;;;;;;4.75;4.35;;;20.90;59.00;;;;;;5121378;28;20046;-49
2022/09/18 01:06:26;;;;;;;4.88;4.47;;;20.80;59.00;;;;;;5126823;27;20028;-48
2022/09/18 01:09:13;;;;;;;4.68;4.28;;;20.80;59.00;;;;;;5105446;28;20031;-51
2022/09/18 01:11:45;;;;;;;4.38;3.97;;;20.80;59.10;;;;;;5097039;28;20527;-49
2022/09/18 01:14:33;;;;;;;4.47;4.07;;;20.80;59.20;;;;;;5100660;28;20031;-48
2022/09/18 01:17:21;;;;;;;4.82;4.43;;;20.80;59.10;;;;;;5125280;27;20027;-51
2022/09/18 01:20:05;;;;;;;4.53;4.13;;;20.70;58.90;;;;;;5121891;28;20036;-47
2022/09/18 01:22:49;;;;;;;4.80;4.40;;;20.70;59.10;;;;;;5118443;27;20026;-48
2022/09/18 01:25:51;;;;;;;4.10;3.80;;;20.60;59.10;;;;;;5120614;27;20035;-48
2022/09/18 01:28:26;;;;;;;4.70;4.25;;;20.60;59.20;;;;;;5114018;27;20047;-49
2022/09/18 01:30:56;;;;;;;4.60;4.20;;;20.60;59.10;;;;;;5110654;27;20034;-50
2022/09/18 01:33:33;;;;;;;4.03;3.72;;;20.60;59.10;;;;;;5105162;28;20051;-48
2022/09/18 01:36:02;;;;;;;3.90;3.60;;;20.60;59.10;;;;;;5102780;28;20043;-49
2022/09/18 01:38:36;;;;;;;4.40;4.00;;;20.50;59.00;;;;;;5125284;27;20655;-49
2022/09/18 01:41:36;;;;;;;4.03;3.72;;;20.50;59.00;;;;;;5108911;27;21400;-49
2022/09/18 01:44:11;;;;;;;4.47;4.07;;;20.50;59.00;;;;;;5049417;28;20052;-48
2022/09/18 01:46:37;;;;;;;3.85;3.55;;;20.40;58.90;;;;;;5026734;28;20028;-50
2022/09/18 01:49:09;;;;;;;4.13;3.75;;;20.40;59.00;;;;;;5030002;28;20047;-48
2022/09/18 01:51:47;;;;;;;3.67;3.38;;;20.40;58.90;;;;;;5059036;28;20044;-52
2022/09/18 01:54:15;;;;;;;3.80;3.50;;;20.30;58.90;;;;;;5056570;28;20066;-51
2022/09/18 01:57:05;;;;;;;4.50;4.10;;;20.40;58.90;;;;;;5059780;28;20061;-48
2022/09/18 01:59:37;;;;;;;4.03;3.72;;;20.30;58.90;;;;;;5046412;28;20037;-50
2022/09/18 02:02:05;;;;;;;3.65;3.35;;;20.30;58.90;;;;;;5047233;28;20025;-53
2022/09/18 02:04:51;;;;;;;3.78;3.47;;;20.20;58.80;;;;;;5049463;28;20058;-50
2022/09/18 02:07:25;;;;;;;4.25;3.85;;;20.20;59.00;;;;;;5024868;28;20117;-53
2022/09/18 02:09:51;;;;;;;3.60;3.30;;;20.20;59.10;;;;;;5017567;28;20038;-50
2022/09/18 02:12:19;;;;;;;3.75;3.45;;;20.20;59.30;;;;;;5018468;28;20582;-50
2022/09/18 02:14:46;;;;;;;3.60;3.28;;;20.10;60.20;;;;;;5004598;28;20094;-51
2022/09/18 02:17:16;;;;;;;3.60;3.30;;;20.10;59.80;;;;;;5018847;28;20133;-49
2022/09/18 02:19:45;;;;;;;3.35;3.05;;;20.10;60.10;;;;;;5043188;28;20067;-51
2022/09/18 02:22:14;;;;;;;3.28;2.97;;;20.10;60.50;;;;;;5057307;28;20082;-48
2022/09/18 02:24:40;;;;;;;3.00;2.80;;;20.10;60.70;;;;;;5043467;28;20037;-50
2022/09/18 02:27:07;;;;;;;3.00;2.80;;;20.10;61.00;;;;;;5045415;28;20043;-47
2022/09/18 02:29:33;;;;;;;3.25;3.00;;;20.10;61.30;;;;;;5044194;28;20046;-47
2022/09/18 02:31:59;;;;;;;2.90;2.60;;;20.10;61.50;;;;;;5044475;28;20040;-47
2022/09/18 02:34:26;;;;;;;4.45;3.00;;;20.00;61.60;;;;;;5067110;28;20040;-48
2022/09/18 02:36:55;;;;;;;2.95;2.75;;;20.00;61.90;;;;;;5061240;28;20148;-51
2022/09/18 02:39:46;;;;;;;3.00;2.70;;;20.00;62.00;;;;;;5060800;28;20040;-52
2022/09/18 02:42:30;;;;;;;2.95;2.65;;;20.00;62.20;;;;;;5055292;28;20059;-52
2022/09/18 02:45:05;;;;;;;2.70;2.50;;;20.10;62.50;;;;;;5102186;28;20078;-50
2022/09/18 02:47:44;;;;;;;2.97;2.70;;;20.00;62.60;;;;;;5126426;27;20052;-50
2022/09/18 02:50:10;;;;;;;2.67;2.47;;;20.00;62.70;;;;;;5104004;27;20027;-51
2022/09/18 02:52:51;;;;;;;2.58;2.38;;;20.00;62.90;;;;;;5127090;27;20020;-50
2022/09/18 02:55:20;;;;;;;3.13;2.47;;;20.00;63.00;;;;;;5120643;28;20755;-48
2022/09/18 02:57:50;;;;;;;2.50;2.30;;;20.00;63.20;;;;;;5085505;28;20043;-48
2022/09/18 03:00:17;;;;;;;2.38;2.17;;;20.00;63.40;;;;;;5102311;28;20032;-52
2022/09/18 03:02:44;;;;;;;2.50;2.30;;;20.00;63.40;;;;;;5125627;28;20051;-48
2022/09/18 03:05:10;;;;;;;;;;;20.00;63.50;;;;;;5109167;28;20028;-49
2022/09/18 03:07:36;;;;;;;2.40;2.20;;;20.00;63.70;;;;;;5124546;28;19908;-50
2022/09/18 03:10:03;;;;;;;2.67;2.45;;;20.00;64.00;;;;;;5120876;28;20028;-48
2022/09/18 03:12:29;;;;;;;2.77;2.57;;;20.00;64.10;;;;;;5127489;28;20027;-50
2022/09/18 03:14:55;;;;;;;2.42;2.22;;;20.00;64.20;;;;;;5117690;28;20032;-53
2022/09/18 03:17:41;;;;;;;3.65;2.50;;;20.00;64.30;;;;;;5130503;28;20023;-49
2022/09/18 03:20:08;;;;;;;2.38;2.17;;;20.00;64.40;;;;;;5014264;28;20069;-50
2022/09/18 03:22:34;;;;;;;2.50;2.30;;;20.10;64.60;;;;;;5016379;28;20034;-50
2022/09/18 03:25:00;;;;;;;2.77;2.57;;;20.10;64.60;;;;;;5017535;28;20038;-51
2022/09/18 03:27:26;;;;;;;2.92;2.33;;;20.10;64.60;;;;;;5009295;28;20321;-50
2022/09/18 03:29:52;;;;;;;2.47;2.28;;;20.10;64.70;;;;;;5010436;28;20045;-50
2022/09/18 03:32:19;;;;;;;2.20;2.00;;;20.10;64.70;;;;;;5009931;28;20052;-52
2022/09/18 03:34:45;;;;;;;2.33;2.13;;;20.10;64.70;;;;;;5014293;28;20069;-48
2022/09/18 03:37:11;;;;;;;2.45;2.22;;;20.10;64.80;;;;;;5013457;28;20037;-49
2022/09/18 03:39:37;;;;;;;2.40;2.15;;;20.10;65.00;;;;;;5014472;28;20049;-50
2022/09/18 03:42:03;;;;;;;2.40;2.20;;;20.10;64.90;;;;;;5013157;28;20026;-51
2022/09/18 03:44:29;;;;;;;2.40;2.13;;;20.10;64.90;;;;;;5013560;28;20045;-49
2022/09/18 03:46:55;;;;;;;2.35;2.10;;;20.10;65.00;;;;;;5013430;28;20053;-50
2022/09/18 03:49:21;;;;;;;2.35;2.15;;;20.10;65.10;;;;;;5013691;28;20022;-48
2022/09/18 03:51:47;;;;;;;2.50;2.30;;;20.10;65.20;;;;;;5013370;28;20034;-50
2022/09/18 03:54:14;;;;;;;2.17;1.98;;;20.10;65.30;;;;;;5013573;28;20082;-50
2022/09/18 03:56:40;;;;;;;2.13;2.00;;;20.10;66.00;;;;;;5046307;28;20054;-52
2022/09/18 03:59:06;;;;;;;2.45;2.25;;;20.10;65.30;;;;;;5126463;27;20031;-50
2022/09/18 04:01:32;;;;;;;2.42;2.22;;;20.20;65.50;;;;;;5124131;27;20118;-49
2022/09/18 04:03:58;;;;;;;2.55;2.35;;;20.20;65.40;;;;;;5124200;27;20086;-53
2022/09/18 04:06:24;;;;;;;1.90;1.80;;;20.20;65.50;;;;;;5126599;27;20357;-50
2022/09/18 04:08:52;;;;;;;2.38;2.03;;;20.20;65.50;;;;;;5121756;27;20087;-48
2022/09/18 04:11:18;;;;;;;2.00;1.90;;;20.20;65.60;;;;;;5123691;27;20024;-50
2022/09/18 04:13:44;;;;;;;2.30;2.10;;;20.20;65.60;;;;;;5118166;27;20048;-52
2022/09/18 04:16:10;;;;;;;2.20;2.00;;;20.20;65.70;;;;;;5117162;27;20049;-51
2022/09/18 04:18:36;;;;;;;2.25;2.05;;;20.20;65.60;;;;;;5120473;27;20035;-50
2022/09/18 04:21:02;;;;;;;2.40;2.20;;;20.20;65.60;;;;;;5119867;27;20502;-49
2022/09/18 04:23:28;;;;;;;2.50;2.30;;;20.20;65.60;;;;;;5118847;27;20038;-52
2022/09/18 04:25:54;;;;;;;2.50;2.28;;;20.20;65.70;;;;;;5120362;27;20027;-52
2022/09/18 04:28:20;;;;;;;2.55;2.35;;;20.20;65.70;;;;;;5119633;27;20099;-48
2022/09/18 04:30:47;;;;;;;2.40;2.20;;;20.20;65.70;;;;;;5120392;27;20495;-49
2022/09/18 04:33:13;;;;;;;2.53;2.33;;;20.20;65.70;;;;;;5117941;27;20048;-49
2022/09/18 04:35:40;;;;;;;2.22;1.92;;;20.30;65.80;;;;;;5118235;27;20270;-49
2022/09/18 04:38:07;;;;;;;2.50;2.30;;;20.30;65.80;;;;;;5100948;28;20082;-49
2022/09/18 04:40:34;;;;;;;2.42;2.22;;;20.30;65.90;;;;;;5105300;28;20020;-48
2022/09/18 04:43:00;;;;;;;2.20;2.00;;;20.30;65.90;;;;;;5125007;27;20032;-50
2022/09/18 04:45:26;;;;;;;2.08;1.88;;;20.30;66.00;;;;;;5124503;27;20032;-50
2022/09/18 04:47:52;;;;;;;2.63;2.20;;;20.30;66.10;;;;;;5133123;27;20434;-52
2022/09/18 04:50:19;;;;;;;2.40;2.20;;;20.30;66.10;;;;;;5124132;27;20023;-52
2022/09/18 04:52:45;;;;;;;2.20;1.95;;;20.30;66.10;;;;;;5122650;27;20675;-53
2022/09/18 04:55:11;;;;;;;2.30;2.10;;;20.30;66.20;;;;;;5122843;28;20028;-52
2022/09/18 04:57:37;;;;;;;2.72;2.13;;;20.30;66.20;;;;;;5123961;27;20042;-52
2022/09/18 05:00:05;;;;;;;2.30;2.10;;;20.30;66.20;;;;;;5123191;28;20464;-54
2022/09/18 05:02:31;;;;;;;2.28;2.08;;;20.30;66.20;;;;;;5122376;28;20028;-49
2022/09/18 05:04:57;;;;;;;2.30;2.10;;;20.30;66.20;;;;;;5123900;27;20027;-49
2022/09/18 05:07:23;;;;;;;2.30;2.10;;;20.30;66.10;;;;;;5126753;27;20650;-50
2022/09/18 05:09:50;;;;;;;2.88;2.00;;;20.30;66.10;;;;;;5121851;28;20063;-52
2022/09/18 05:12:16;;;;;;;2.35;2.15;;;20.30;66.20;;;;;;5126023;27;20082;-50
2022/09/18 05:14:42;;;;;;;3.08;2.10;;;20.30;66.20;;;;;;5125190;27;20046;-50
2022/09/18 05:17:08;;;;;;;2.35;2.15;;;20.30;66.20;;;;;;5125713;27;20035;-50
2022/09/18 05:19:35;;;;;;;2.70;2.08;;;20.30;66.20;;;;;;5123230;27;20063;-52
2022/09/18 05:22:01;;;;;;;1.88;1.75;;;20.30;66.20;;;;;;5126833;27;20051;-49
2022/09/18 05:24:27;;;;;;;2.40;2.20;;;20.30;66.20;;;;;;5126235;27;20034;-49
2022/09/18 05:26:53;;;;;;;2.40;2.17;;;20.30;66.20;;;;;;5123233;27;20400;-53
2022/09/18 05:29:19;;;;;;;2.50;2.15;;;20.40;66.20;;;;;;5125022;27;20032;-48
2022/09/18 05:31:46;;;;;;;2.30;2.10;;;20.40;66.30;;;;;;5125828;27;20067;-50
2022/09/18 05:34:12;;;;;;;2.30;2.10;;;20.40;66.30;;;;;;5125516;27;20035;-49
2022/09/18 05:36:38;;;;;;;2.70;2.50;;;20.40;66.20;;;;;;5128426;27;20105;-52
2022/09/18 05:39:04;;;;;;;2.40;2.20;;;20.40;66.30;;;;;;5126986;27;20034;-49
2022/09/18 05:41:30;;;;;;;2.20;2.00;;;20.40;66.30;;;;;;5123781;27;20016;-52
2022/09/18 05:43:57;;;;;;;2.35;2.15;;;20.40;66.40;;;;;;5122973;27;20032;-51
2022/09/18 05:46:23;;;;;;;2.38;2.17;;;20.40;66.30;;;;;;5121776;28;20023;-52
2022/09/18 05:48:49;;;;;;;2.40;2.20;;;20.40;66.30;;;;;;5122010;27;20035;-52
2022/09/18 05:51:15;;;;;;;2.40;2.20;;;20.40;66.30;;;;;;5123331;27;20031;-50
2022/09/18 05:53:47;;;;;;;2.50;2.30;;;20.40;66.30;;;;;;5122169;27;20023;-51
2022/09/18 05:56:14;;;;;;;2.42;2.22;;;20.40;66.30;;;;;;5125900;27;20035;-49
2022/09/18 05:58:41;;;;;;;2.38;2.13;;;20.40;66.30;;;;;;5121855;28;20032;-48
2022/09/18 06:01:07;;;;;;;2.30;2.10;;;20.40;66.30;;;;;;5121524;28;20028;-49
2022/09/18 06:03:33;;;;;;;2.28;2.10;;;20.40;66.30;;;;;;5125058;27;20056;-49
2022/09/18 06:05:59;;;;;;;2.40;2.20;;;20.40;66.40;;;;;;5121775;27;20035;-51
2022/09/18 06:08:25;;;;;;;2.83;2.33;;;20.40;66.40;;;;;;5119671;27;20038;-49
2022/09/18 06:10:53;;;;;;;2.30;2.10;;;20.40;66.40;;;;;;5130733;27;20035;-48
2022/09/18 06:13:19;;;;;;;2.33;2.10;;;20.40;66.50;;;;;;5123466;27;20107;-51
2022/09/18 06:15:51;;;;;;;2.42;2.22;;;20.40;66.50;;;;;;5124453;27;20109;-51
2022/09/18 06:18:17;;;;;;;2.38;2.17;;;20.40;66.50;;;;;;5125105;27;20506;-48
2022/09/18 06:20:43;;;;;;;2.30;2.10;;;20.40;66.50;;;;;;5124119;27;20023;-46
2022/09/18 06:23:09;;;;;;;2.30;2.10;;;20.40;66.50;;;;;;5124096;27;20035;-51
2022/09/18 06:25:36;;;;;;;2.33;2.13;;;20.40;66.60;;;;;;5121269;28;20028;-49
2022/09/18 06:28:02;;;;;;;2.30;2.10;;;20.40;66.60;;;;;;5127770;27;20058;-47
2022/09/18 06:30:33;;;;;;;2.47;2.28;;;20.40;66.60;;;;;;5125071;27;20020;-49
2022/09/18 06:33:00;;;;;;;2.28;2.08;;;20.40;66.70;;;;;;5120565;27;20067;-51
2022/09/18 06:35:26;;;;;;;2.55;2.35;;;20.40;66.70;;;;;;5103532;28;20027;-50
2022/09/18 06:37:52;;;;;;;2.40;2.20;;;20.40;66.60;;;;;;5122586;27;20103;-49
2022/09/18 06:40:18;;;;;;;2.28;2.15;;;20.40;66.70;;;;;;5128915;27;20019;-50
2022/09/18 06:42:44;;;;;;;2.45;2.25;;;20.40;66.70;;;;;;5124625;27;20113;-48
2022/09/18 06:45:10;;;;;;;2.33;2.13;;;20.40;66.70;;;;;;5124433;27;20645;-51
2022/09/18 06:47:37;;;;;;;2.35;2.15;;;20.40;66.70;;;;;;5120876;28;20031;-49
2022/09/18 06:50:03;;;;;;;2.50;2.30;;;20.40;66.80;;;;;;5124146;28;20028;-47
2022/09/18 06:52:30;;;;;;;2.90;2.67;;;20.40;66.70;;;;;;5127460;27;20084;-48
2022/09/18 06:54:56;;;;;;;2.53;2.33;;;20.40;66.80;;;;;;5122423;28;20107;-50
2022/09/18 06:57:22;;;;;;;2.55;2.00;;;20.50;66.80;;;;;;5119644;28;20123;-48
2022/09/18 06:59:49;;;;;;;2.58;2.38;;;20.50;66.80;;;;;;5120653;28;20047;-50
2022/09/18 07:02:15;;;;;;;2.30;2.10;;;20.50;66.80;;;;;;5124187;28;20103;-48
2022/09/18 07:04:41;;;;;;;2.80;2.60;;;20.40;66.90;;;;;;5120420;28;20741;-49
2022/09/18 07:07:07;;;;;;;2.60;2.40;;;20.50;66.80;;;;;;5125596;27;20038;-48
2022/09/18 07:09:33;;;;;;;2.40;2.20;;;20.50;66.80;;;;;;5124639;28;20024;-49
2022/09/18 07:11:59;;;;;;;2.70;2.50;;;20.50;66.90;;;;;;5127884;27;20074;-49
2022/09/18 07:14:25;;;;;;;2.60;2.40;;;20.40;66.80;;;;;;5127576;27;20058;-49
2022/09/18 07:16:52;;;;;;;2.50;2.30;;;20.40;66.80;;;;;;5125699;27;20126;-51
2022/09/18 07:19:18;;;;;;;2.80;2.60;;;20.50;66.90;;;;;;5126166;27;20032;-48
2022/09/18 07:21:44;;;;;;;2.50;2.30;;;20.50;66.90;;;;;;5127217;27;20049;-50
2022/09/18 07:24:10;;;;;;;3.30;2.80;;;20.50;66.90;;;;;;5125993;27;20039;-50
2022/09/18 07:26:36;;;;;;;2.30;2.10;;;20.50;67.10;;;;;;5131516;27;20027;-49
2022/09/18 07:29:02;;;;;;;2.75;2.55;;;20.50;67.20;;;;;;5125210;27;20051;-52
2022/09/18 07:31:28;;;;;;;2.47;2.28;;;20.40;67.10;;;;;;5124663;27;20520;-47
2022/09/18 07:33:55;;;;;;;2.63;2.42;;;20.50;67.30;;;;;;5125547;27;20027;-47
2022/09/18 07:36:21;;;;;;;3.00;2.40;;;20.50;67.30;;;;;;5126222;27;20080;-48
2022/09/18 07:38:51;;;;;;;2.65;2.10;;;20.50;67.20;;;;;;5122667;27;20055;-50
2022/09/18 07:41:17;;;;;;;2.78;2.58;;;20.50;67.20;;;;;;5122870;27;20089;-47
2022/09/18 07:43:44;;;;;;;2.60;2.40;;;20.50;67.20;;;;;;5118850;27;20043;-49
2022/09/18 07:46:10;;;;;;;2.42;2.22;;;20.50;67.20;;;;;;5118165;27;20059;-50
2022/09/18 07:48:36;;;;;;;2.97;2.67;;;20.50;67.20;;;;;;5115591;27;20032;-49
2022/09/18 07:51:03;;;;;;;2.65;2.22;;;20.40;67.10;;;;;;5119305;27;20034;-49
2022/09/18 07:53:29;;;;;;;2.80;2.60;;;20.50;67.20;;;;;;5125917;27;20322;-50
2022/09/18 07:55:56;;;;;;;2.92;2.45;;;20.50;67.20;;;;;;5121523;27;20043;-49
2022/09/18 07:58:22;;;;;;;2.50;2.30;;;20.40;67.20;;;;;;5122145;27;20042;-51
2022/09/18 08:00:49;;;;;;;2.42;2.22;;;20.40;67.20;;;;;;5117095;27;20057;-48
2022/09/18 08:03:15;;;;;;;2.80;2.60;;;20.40;67.20;;;;;;5118343;27;20039;-48
2022/09/18 08:05:41;;;;;;;2.20;2.00;;;20.50;67.30;;;;;;5120113;27;20037;-48
2022/09/18 08:08:09;;;;;;;2.33;2.20;;;20.40;67.20;;;;;;5121536;27;20076;-49
2022/09/18 08:10:35;;;;;;;2.58;2.38;;;20.40;67.20;;;;;;5128396;27;20035;-48
2022/09/18 08:13:02;;;;;;;2.85;2.65;;;20.40;67.20;;;;;;5124434;27;20119;-50
2022/09/18 08:15:29;;;;;;;2.70;2.50;;;20.40;67.30;;;;;;5131079;27;20072;-47
2022/09/18 08:17:55;;;;;;;2.80;2.60;;;20.40;67.30;;;;;;5126145;27;20047;-51
2022/09/18 08:20:22;;;;;;;2.92;2.45;;;20.40;67.30;;;;;;5123928;27;20038;-51
2022/09/18 08:22:48;;;;;;;2.50;2.30;;;20.40;67.30;;;;;;5125610;27;20039;-52
2022/09/18 08:25:14;;;;;;;2.33;2.13;;;20.40;67.40;;;;;;5126729;27;20047;-53
2022/09/18 08:27:40;;;;;;;2.63;2.42;;;20.40;67.40;;;;;;5131678;27;20027;-50
2022/09/18 08:30:08;;;;;;;2.90;2.58;;;20.40;67.50;;;;;;5126950;27;20651;-50
2022/09/18 08:32:34;;;;;;;2.60;2.40;;;20.40;67.80;;;;;;5123018;28;20060;-48
2022/09/18 08:35:01;;;;;;;2.80;2.60;;;20.40;67.70;;;;;;5123092;28;20036;-49
2022/09/18 08:37:27;;;;;;;2.90;2.22;;;20.40;67.80;;;;;;5121774;28;20046;-50
2022/09/18 08:39:53;;;;;;;3.00;2.80;;;20.40;67.90;;;;;;5116989;27;20036;-52
2022/09/18 08:43:13;;;;;;;2.88;2.67;;;20.40;67.90;;;;;;5120212;27;20099;-49
2022/09/18 08:46:15;;;;;;;2.75;2.55;;;20.40;67.90;;;;;;5033557;28;20037;-48
2022/09/18 08:48:55;;;;;;;2.42;2.22;;;20.40;67.90;;;;;;5032144;28;20030;-52
2022/09/18 08:51:42;;;;;;;2.65;2.45;;;20.40;67.90;;;;;;5032477;28;20048;-53
2022/09/18 08:54:21;;;;;;;2.78;2.58;;;20.40;67.80;;;;;;5032087;28;20041;-48
2022/09/18 08:56:48;;;;;;;2.80;2.60;;;20.40;67.90;;;;;;5032112;28;20025;-50
2022/09/18 08:59:19;;;;;;;2.75;2.55;;;20.40;67.90;;;;;;5032034;28;20045;-52
2022/09/18 09:02:07;;;;;;;2.70;2.50;;;20.40;67.90;;;;;;5031012;28;20030;-50
2022/09/18 09:04:33;;;;;;;2.33;2.13;;;20.40;67.80;;;;;;5032248;28;21757;-47
2022/09/18 09:07:09;;;;;;;2.63;2.42;;;20.40;67.80;;;;;;5022155;28;20037;-50
2022/09/18 09:09:49;;;;;;;2.90;2.60;;;20.40;67.80;;;;;;5038133;28;20033;-50
2022/09/18 09:12:15;;;;;;;2.63;2.42;;;20.40;67.80;;;;;;5038778;28;20133;-49
2022/09/18 09:15:06;;;;;;;2.83;2.60;;;20.40;67.80;;;;;;5038867;28;20106;-52
2022/09/18 09:17:53;;;;;;;2.63;2.42;;;20.40;67.80;;;;;;5040398;28;20528;-48
2022/09/18 09:20:23;;;;;;;2.90;2.60;;;20.40;67.80;;;;;;5119034;27;20496;-49
2022/09/18 09:23:18;;;;;;;2.80;2.50;;;20.40;67.80;;;;;;5124362;27;20057;-50
2022/09/18 09:26:17;;;;;;;3.00;2.80;;;20.40;67.90;;;;;;5123759;27;20440;-48
2022/09/18 09:28:55;;;;;;;2.55;2.35;;;20.40;67.90;;;;;;5103113;28;20043;-48
2022/09/18 09:31:31;;;;;;;2.50;2.30;;;20.40;67.90;;;;;;5102555;28;20078;-50
2022/09/18 09:34:20;;;;;;;2.70;2.50;;;20.40;67.90;;;;;;5124607;27;20035;-49
2022/09/18 09:36:49;;;;;;;2.80;2.55;;;20.40;68.00;;;;;;5110399;27;20085;-49
2022/09/18 09:39:47;;;;;;;2.47;2.28;;;20.30;67.90;;;;;;5100700;27;20123;-49
2022/09/18 09:42:33;;;;;;;2.67;2.25;;;20.40;68.00;;;;;;5095399;27;20095;-50
2022/09/18 09:45:08;;;;;;;2.40;2.20;;;20.30;67.90;;;;;;5102774;27;20061;-47
2022/09/18 09:47:40;;;;;;;2.75;2.55;;;20.30;68.00;;;;;;5102372;27;20589;-48
2022/09/18 09:50:15;;;;;;;2.83;2.53;;;20.30;67.90;;;;;;5114144;27;20024;-51
2022/09/18 09:52:42;;;;;;;2.58;2.38;;;20.30;67.90;;;;;;5118706;27;20035;-50
2022/09/18 09:55:18;;;;;;;2.65;2.45;;;20.30;67.90;;;;;;5116948;27;20039;-50
2022/09/18 09:58:24;;;;;;;2.83;2.55;;;20.30;68.10;;;;;;5116752;27;20088;-51
2022/09/18 10:01:26;;;;;;;2.97;2.70;;;20.30;68.20;;;;;;5115104;27;20049;-50
2022/09/18 10:04:30;;;;;;;2.38;2.20;;;20.30;68.30;;;;;;5084025;27;20058;-53
2022/09/18 10:07:16;;;;;;;2.53;2.33;;;20.30;68.40;;;;;;5118526;27;20054;-51
2022/09/18 10:09:51;;;;;;;3.17;2.75;;;20.30;68.30;;;;;;5122244;28;20034;-50
2022/09/18 10:12:31;;;;;;;2.80;2.60;;;20.30;68.40;;;;;;5101422;28;20086;-52
2022/09/18 10:15:16;;;;;;;2.70;2.50;;;20.30;68.30;;;;;;5120746;27;20042;-50
2022/09/18 10:17:42;;;;;;;2.70;2.50;;;20.30;68.40;;;;;;5112199;27;20028;-50
2022/09/18 10:20:16;;;;;;;2.90;2.70;;;20.30;68.40;;;;;;5129762;27;20034;-50
2022/09/18 10:22:43;;;;;;;2.72;2.50;;;20.30;68.40;;;;;;5111882;27;20114;-51
2022/09/18 10:25:28;;;;;;;2.90;2.70;;;20.30;68.40;;;;;;5106673;27;20042;-51
2022/09/18 10:27:54;;;;;;;2.60;2.40;;;20.30;68.40;;;;;;5119008;27;20024;-50
2022/09/18 10:30:20;;;;;;;2.67;2.47;;;20.30;68.40;;;;;;5121492;28;20028;-49
2022/09/18 10:32:46;;;;;;;3.05;2.50;;;20.30;68.40;;;;;;5123147;27;20047;-49
2022/09/18 10:35:37;;;;;;;3.03;2.72;;;20.30;68.40;;;;;;5124865;27;20034;-52
2022/09/18 10:38:08;;;;;;;2.85;2.65;;;20.30;68.40;;;;;;5102536;27;20031;-50
2022/09/18 10:40:38;;;;;;;3.10;2.90;;;20.30;68.50;;;;;;5106632;28;20051;-54
2022/09/18 10:43:17;;;;;;;2.90;2.70;;;20.30;68.40;;;;;;5085080;28;20031;-53
2022/09/18 10:45:43;;;;;;;2.55;2.35;;;20.30;68.40;;;;;;5099865;28;20023;-49
2022/09/18 10:48:22;;;;;;;2.53;2.33;;;20.30;68.40;;;;;;5084862;28;20040;-50
2022/09/18 10:51:19;;;;;;;3.05;2.75;;;20.30;68.40;;;;;;5105473;27;20126;-53
2022/09/18 10:53:45;;;;;;;3.00;2.70;;;20.30;68.40;;;;;;5119405;27;20078;-53
2022/09/18 10:56:16;;;;;;;2.65;2.45;;;20.30;69.10;;;;;;5086813;28;20019;-52
2022/09/18 10:58:42;;;;;;;2.80;2.60;;;20.30;68.40;;;;;;5106053;28;20043;-51
2022/09/18 11:01:08;;;;;;;3.05;2.78;;;20.30;68.40;;;;;;5120978;28;20023;-50
2022/09/18 11:03:50;;;;;;;2.85;2.50;;;20.30;68.40;;;;;;5102191;28;20095;-51
2022/09/18 11:06:22;;;;;;;2.80;2.60;;;20.30;68.40;;;;;;5101858;28;20031;-50
2022/09/18 11:08:50;;;;;;;2.70;2.50;;;20.30;68.40;;;;;;5119474;28;20139;-50
2022/09/18 11:11:36;;;;;;;2.88;2.67;;;20.30;68.40;;;;;;5097901;28;20027;-50
2022/09/18 11:14:14;;;;;;;2.85;2.65;;;20.30;68.40;;;;;;5082251;28;20123;-50
2022/09/18 11:16:44;;;;;;;;;;;20.30;68.50;;;;;;5099577;28;20799;-51
2022/09/18 11:19:11;;;;;;;2.85;2.65;;;20.30;68.40;;;;;;5099152;28;19915;-50
2022/09/18 11:21:45;;;;;;;2.67;2.47;;;20.30;68.40;;;;;;5117421;28;20056;-51
2022/09/18 11:24:26;;;;;;;2.60;2.40;;;20.30;68.40;;;;;;5100126;28;20059;-48
2022/09/18 11:26:55;;;;;;;2.67;2.47;;;20.30;68.50;;;;;;5115004;28;20026;-48
2022/09/18 11:29:32;;;;;;;2.83;2.63;;;20.30;68.50;;;;;;5115730;28;20039;-48
2022/09/18 11:32:10;;;;;;;3.08;2.70;;;20.30;68.50;;;;;;5115976;28;20054;-47
2022/09/18 11:34:37;;;;;;;2.58;2.38;;;20.20;68.50;;;;;;5118185;28;20491;-48
2022/09/18 11:37:09;;;;;;;2.70;2.50;;;20.20;68.40;;;;;;5100300;28;20110;-48
2022/09/18 11:39:44;;;;;;;2.50;2.30;;;20.20;68.50;;;;;;5103896;28;20126;-49
2022/09/18 11:42:12;;;;;;;2.85;2.65;;;20.20;68.50;;;;;;5119360;28;20685;-51
2022/09/18 11:44:38;;;;;;;2.63;2.42;;;20.20;68.50;;;;;;5105715;28;20059;-51
2022/09/18 11:47:25;;;;;;;3.00;2.80;;;20.20;68.40;;;;;;5120317;28;20031;-48
2022/09/18 11:50:12;;;;;;;2.40;2.20;;;20.20;68.50;;;;;;5103572;28;20041;-52
2022/09/18 11:52:51;;;;;;;3.20;2.90;;;20.20;68.50;;;;;;5099350;28;20031;-49
2022/09/18 11:55:36;;;;;;;3.17;2.88;;;20.20;68.50;;;;;;5132293;27;20023;-53
2022/09/18 11:58:21;;;;;;;3.10;2.80;;;20.20;68.60;;;;;;5106284;27;20048;-51
2022/09/18 12:01:21;;;;;;;2.80;2.60;;;20.20;68.60;;;;;;5121418;27;20073;-49
2022/09/18 12:04:35;;;;;;;2.72;2.53;;;20.20;68.60;;;;;;5108016;27;20047;-50
2022/09/18 12:07:32;;;;;;;3.03;2.83;;;20.20;68.60;;;;;;5040019;28;21321;-49
2022/09/18 12:10:11;;;;;;;3.05;2.78;;;20.20;68.60;;;;;;5026778;28;20036;-50
2022/09/18 12:13:14;;;;;;;2.67;2.47;;;20.20;68.60;;;;;;5039975;28;20036;-48
2022/09/18 12:15:41;;;;;;;2.80;2.60;;;20.20;68.70;;;;;;5044084;28;20053;-49
2022/09/18 12:18:14;;;;;;;2.67;2.47;;;20.20;68.70;;;;;;5027228;28;20044;-49
2022/09/18 12:20:44;;;;;;;2.83;2.63;;;20.20;68.70;;;;;;5027407;28;20049;-48
2022/09/18 12:23:14;;;;;;;3.03;2.80;;;20.20;68.70;;;;;;5023688;28;20045;-49
2022/09/18 12:25:48;;;;;;;3.00;2.65;;;20.20;68.70;;;;;;5039825;28;20245;-49
2022/09/18 12:28:30;;;;;;;2.80;2.60;;;20.20;68.70;;;;;;5021124;28;20057;-49
2022/09/18 12:31:25;;;;;;;3.17;2.85;;;20.20;68.80;;;;;;5042750;28;20033;-50
2022/09/18 12:33:56;;;;;;;3.17;2.97;;;20.20;68.80;;;;;;5020525;28;20485;-51
2022/09/18 12:36:29;;;;;;;2.70;2.50;;;20.20;68.80;;;;;;5040334;28;20041;-50
2022/09/18 12:39:13;;;;;;;2.75;2.55;;;20.20;68.80;;;;;;5024964;28;20037;-52
2022/09/18 12:41:49;;;;;;;3.08;2.88;;;20.20;68.80;;;;;;5025122;28;20555;-49
2022/09/18 12:44:21;;;;;;;2.60;2.40;;;20.10;68.80;;;;;;5119849;27;20043;-54
2022/09/18 12:47:27;;;;;;;2.90;2.60;;;20.20;68.80;;;;;;5126832;27;20490;-53
2022/09/18 12:50:11;;;;;;;2.67;2.47;;;20.20;68.90;;;;;;5099678;27;20749;-50
2022/09/18 12:53:00;;;;;;;2.40;2.20;;;20.20;68.80;;;;;;5122805;27;20073;-53
2022/09/18 12:55:42;;;;;;;2.70;2.50;;;20.10;68.80;;;;;;5123048;27;20024;-54
2022/09/18 12:58:19;;;;;;;2.42;2.22;;;20.20;68.90;;;;;;5126044;27;20035;-54
2022/09/18 13:00:46;;;;;;;2.08;1.90;;;20.10;68.80;;;;;;5108240;28;20076;-49
2022/09/18 13:03:15;;;;;;;;;;;20.20;68.90;;;;;;5131265;27;20039;-54
2022/09/18 13:05:43;;;;;;;2.60;2.40;;;20.10;68.90;;;;;;5125130;27;19911;-52
2022/09/18 13:08:09;;;;;;;2.88;2.67;;;20.10;68.90;;;;;;5106092;27;20024;-49
2022/09/18 13:10:44;;;;;;;2.80;2.60;;;20.10;69.00;;;;;;5123654;27;20032;-51
2022/09/18 13:13:13;;;;;;;2.30;2.10;;;20.10;69.00;;;;;;5109074;27;20046;-51